createdAt,value
2019-01-21T00:02:13.383Z,12.13
2019-01-21T00:04:43.582Z,12.43
2019-01-21T00:07:13.846Z,13.67
2019-01-21T00:09:44.070Z,12.97
2019-01-21T00:12:14.693Z,13.20
2019-01-21T00:14:45.067Z,13.33
2019-01-21T00:17:22.166Z,13.17
2019-01-21T00:19:47.656Z,12.90
2019-01-21T00:22:17.999Z,12.70
2019-01-21T00:24:48.379Z,13.37
2019-01-21T00:27:18.624Z,13.17
2019-01-21T00:29:48.878Z,13.40
2019-01-21T00:32:19.045Z,13.63
2019-01-21T00:34:49.266Z,13.57
2019-01-21T00:37:19.805Z,13.37
2019-01-21T00:39:50.081Z,14.53
2019-01-21T00:42:20.499Z,13.73
2019-01-21T00:44:50.743Z,15.83
2019-01-21T00:47:21.326Z,14.73
2019-01-21T00:49:51.572Z,14.03
2019-01-21T00:52:21.797Z,14.10
2019-01-21T00:54:52.017Z,14.30
2019-01-21T00:57:22.239Z,14.20
2019-01-21T00:59:52.466Z,14.43
2019-01-21T01:02:22.708Z,14.10
2019-01-21T01:04:53.088Z,13.90
2019-01-21T01:07:23.742Z,13.20
2019-01-21T01:09:54.354Z,13.93
2019-01-21T01:12:24.674Z,13.93
2019-01-21T01:14:54.956Z,13.70
2019-01-21T01:17:25.570Z,13.10
2019-01-21T01:19:55.856Z,13.10
2019-01-21T01:22:26.386Z,13.07
2019-01-21T01:24:56.616Z,12.40
2019-01-21T01:27:27.182Z,13.13
2019-01-21T01:29:57.430Z,13.67
2019-01-21T01:32:27.783Z,12.77
2019-01-21T01:34:58.024Z,13.13
2019-01-21T01:37:28.264Z,14.27
2019-01-21T01:39:58.821Z,13.13
2019-01-21T01:42:29.430Z,13.67
2019-01-21T01:45:00.610Z,14.37
2019-01-21T01:47:31.244Z,12.47
2019-01-21T01:50:01.455Z,13.33
2019-01-21T01:52:31.685Z,12.50
2019-01-21T01:55:01.939Z,12.90
2019-01-21T01:57:32.543Z,13.83
2019-01-21T02:00:06.536Z,12.83
2019-01-21T02:02:36.999Z,13.63
2019-01-21T02:05:07.359Z,13.00
2019-01-21T02:07:38.167Z,12.87
2019-01-21T02:10:10.691Z,12.73
2019-01-21T02:12:41.273Z,12.97
2019-01-21T02:15:11.913Z,13.07
2019-01-21T02:17:42.456Z,13.03
2019-01-21T02:20:13.733Z,13.47
2019-01-21T02:22:45.803Z,12.87
2019-01-21T02:25:16.341Z,12.03
2019-01-21T02:28:13.687Z,12.33
2019-01-21T02:31:12.639Z,12.07
2019-01-21T02:34:42.494Z,13.50
2019-01-21T02:37:46.370Z,12.68
2019-01-21T02:40:44.973Z,12.33
2019-01-21T02:43:42.182Z,12.37
2019-01-21T02:46:52.650Z,11.63
2019-01-21T02:49:53.085Z,11.50
2019-01-21T02:53:05.293Z,10.97
2019-01-21T02:56:35.051Z,11.50
2019-01-21T02:59:42.146Z,11.77
2019-01-21T03:02:41.017Z,11.70
2019-01-21T03:05:47.546Z,12.37
2019-01-21T03:08:45.258Z,12.43
2019-01-21T03:11:39.466Z,11.73
2019-01-21T03:14:47.740Z,11.97
2019-01-21T03:18:07.778Z,12.33
2019-01-21T03:21:08.114Z,12.77
2019-01-21T03:24:16.528Z,12.10
2019-01-21T03:27:38.529Z,12.87
2019-01-21T03:30:41.406Z,12.17
2019-01-21T03:33:39.965Z,11.40
2019-01-21T03:36:34.137Z,11.40
2019-01-21T03:39:51.572Z,11.53
2019-01-21T03:42:39.767Z,11.07
2019-01-21T03:45:56.069Z,11.80
2019-01-21T03:49:03.532Z,11.10
2019-01-21T03:52:09.607Z,10.83
2019-01-21T03:54:47.768Z,11.43
2019-01-21T03:57:58.419Z,11.50
2019-01-21T04:00:47.397Z,11.50
2019-01-21T04:03:49.833Z,10.87
2019-01-21T04:06:41.072Z,11.50
2019-01-21T04:09:42.306Z,12.10
2019-01-21T04:12:35.682Z,11.37
2019-01-21T04:15:38.889Z,10.93
2019-01-21T04:18:45.151Z,12.17
2019-01-21T04:22:11.563Z,12.40
2019-01-21T04:25:14.960Z,11.50
2019-01-21T04:28:22.219Z,12.00
2019-01-21T04:31:28.565Z,12.50
2019-01-21T04:34:51.963Z,11.77
2019-01-21T04:37:34.547Z,11.40
2019-01-21T04:40:43.223Z,11.63
2019-01-21T04:43:57.353Z,12.18
2019-01-21T04:47:09.035Z,11.40
2019-01-21T04:50:08.384Z,10.70
2019-01-21T04:53:00.463Z,10.17
2019-01-21T04:56:14.593Z,10.60
2019-01-21T04:59:17.051Z,11.13
2019-01-21T05:02:09.861Z,10.17
2019-01-21T05:05:08.007Z,10.23
2019-01-21T05:08:33.297Z,10.63
2019-01-21T05:11:32.091Z,11.13
2019-01-21T05:14:46.461Z,10.00
2019-01-21T05:17:46.584Z,11.40
2019-01-21T05:20:46.670Z,11.20
2019-01-21T05:23:39.505Z,11.20
2019-01-21T05:26:49.148Z,10.70
2019-01-21T05:29:40.745Z,11.30
2019-01-21T05:32:46.954Z,11.73
2019-01-21T05:35:43.159Z,11.13
2019-01-21T05:38:39.358Z,12.23
2019-01-21T05:41:34.693Z,11.83
2019-01-21T05:44:48.793Z,12.57
2019-01-21T05:47:55.620Z,12.67
2019-01-21T05:51:30.991Z,12.63
2019-01-21T05:54:33.533Z,11.87
2019-01-21T05:57:49.680Z,12.20
2019-01-21T06:01:00.784Z,12.83
2019-01-21T06:04:02.673Z,13.07
2019-01-21T06:06:58.793Z,13.70
2019-01-21T06:09:59.957Z,12.37
2019-01-21T06:13:02.585Z,12.50
2019-01-21T06:16:04.284Z,12.67
2019-01-21T06:19:22.046Z,12.87
2019-01-21T06:22:34.215Z,12.83
2019-01-21T06:25:43.886Z,12.73
2019-01-21T06:28:39.337Z,13.60
2019-01-21T06:31:38.895Z,12.47
2019-01-21T06:34:58.394Z,12.23
2019-01-21T06:37:49.377Z,13.03
2019-01-21T06:41:10.000Z,13.37
2019-01-21T06:44:16.692Z,12.63
2019-01-21T06:47:18.783Z,12.40
2019-01-21T06:50:21.460Z,12.30
2019-01-21T06:53:28.961Z,12.87
2019-01-21T06:56:57.838Z,13.37
2019-01-21T07:00:05.071Z,12.83
2019-01-21T07:03:07.313Z,14.13
2019-01-21T07:06:07.953Z,11.67
2019-01-21T07:09:08.348Z,14.53
2019-01-21T07:12:27.884Z,14.37
2019-01-21T07:15:27.238Z,14.17
2019-01-21T07:18:28.339Z,14.10
2019-01-21T07:21:32.201Z,14.53
2019-01-21T07:24:30.621Z,14.83
2019-01-21T07:27:18.625Z,15.27
2019-01-21T07:30:25.948Z,15.43
2019-01-21T07:33:43.024Z,16.20
2019-01-21T07:36:42.427Z,15.97
2019-01-21T07:39:39.231Z,16.20
2019-01-21T07:42:56.502Z,16.83
2019-01-21T07:45:41.420Z,17.23
2019-01-21T07:48:40.500Z,16.70
2019-01-21T07:51:54.284Z,17.87
2019-01-21T07:54:51.796Z,17.43
2019-01-21T07:58:06.285Z,17.17
2019-01-21T08:01:15.952Z,17.73
2019-01-21T08:04:24.465Z,16.93
2019-01-21T08:07:23.716Z,17.60
2019-01-21T08:10:30.448Z,18.40
2019-01-21T08:13:27.244Z,18.17
2019-01-21T08:16:40.768Z,18.47
2019-01-21T08:19:47.919Z,18.23
2019-01-21T08:23:01.977Z,17.90
2019-01-21T08:26:09.451Z,18.80
2019-01-21T08:29:36.174Z,19.60
2019-01-21T08:32:42.072Z,18.20
2019-01-21T08:35:53.809Z,18.70
2019-01-21T08:38:36.943Z,18.17
2019-01-21T08:41:47.918Z,18.23
2019-01-21T08:45:02.137Z,17.23
2019-01-21T08:48:00.352Z,17.80
2019-01-21T08:50:44.335Z,17.50
2019-01-21T08:53:49.609Z,16.33
2019-01-21T08:56:49.967Z,15.57
2019-01-21T08:59:44.815Z,15.80
2019-01-21T09:02:51.969Z,16.33
2019-01-21T09:05:45.603Z,17.13
2019-01-21T09:08:39.051Z,17.07
2019-01-21T09:11:45.926Z,17.37
2019-01-21T09:14:37.723Z,16.83
2019-01-21T09:18:07.206Z,16.17
2019-01-21T09:21:09.932Z,17.03
2019-01-21T09:24:20.764Z,19.43
2019-01-21T09:27:38.325Z,23.27
2019-01-21T09:30:48.731Z,25.00
2019-01-21T09:33:50.373Z,25.27
2019-01-21T09:36:47.658Z,24.23
2019-01-21T09:39:50.877Z,24.00
2019-01-21T09:43:05.412Z,21.80
2019-01-21T09:46:11.613Z,19.23
2019-01-21T09:48:40.450Z,17.77
2019-01-21T09:51:11.100Z,18.40
2019-01-21T09:53:43.250Z,17.23
2019-01-21T09:56:13.856Z,17.57
2019-01-21T09:58:46.079Z,17.20
2019-01-21T10:03:58.360Z,17.53
2019-01-21T10:06:42.479Z,17.57
2019-01-21T10:09:48.784Z,17.57
2019-01-21T10:13:03.362Z,18.20
2019-01-21T10:15:55.302Z,17.57
2019-01-21T10:19:11.874Z,17.00
2019-01-21T10:22:41.473Z,16.57
2019-01-21T10:25:44.353Z,16.33
2019-01-21T10:28:55.473Z,16.50
2019-01-21T10:32:15.121Z,16.83
2019-01-21T10:35:10.332Z,16.63
2019-01-21T10:38:26.542Z,16.60
2019-01-21T10:41:33.827Z,16.20
2019-01-21T10:44:25.674Z,17.07
2019-01-21T10:47:46.118Z,16.20
2019-01-21T10:50:48.625Z,15.10
2019-01-21T10:54:02.520Z,17.97
2019-01-21T10:56:57.228Z,17.63
2019-01-21T11:00:01.465Z,18.20
2019-01-21T11:03:22.657Z,18.87
2019-01-21T11:06:30.113Z,17.97
2019-01-21T11:09:36.205Z,18.70
2019-01-21T11:12:56.308Z,18.10
2019-01-21T11:15:34.620Z,19.23
2019-01-21T11:18:36.904Z,18.83
2019-01-21T11:21:17.026Z,18.90
2019-01-21T11:24:14.080Z,19.87
2019-01-21T11:27:07.091Z,21.30
2019-01-21T11:30:26.677Z,21.03
2019-01-21T11:33:52.135Z,18.87
2019-01-21T11:36:56.893Z,19.80
2019-01-21T11:40:07.750Z,20.47
2019-01-21T11:43:03.375Z,20.07
2019-01-21T11:46:12.737Z,19.93
2019-01-21T11:49:02.593Z,19.80
2019-01-21T11:52:29.578Z,20.43
2019-01-21T11:55:16.471Z,20.93
2019-01-21T11:58:20.569Z,20.03
2019-01-21T12:01:23.938Z,21.60
2019-01-21T12:04:19.003Z,20.10
2019-01-21T12:07:12.098Z,19.73
2019-01-21T12:10:01.764Z,20.67
2019-01-21T12:12:56.732Z,18.97
2019-01-21T12:15:40.840Z,19.43
2019-01-21T12:18:31.181Z,22.63
2019-01-21T12:21:33.948Z,21.10
2019-01-21T12:24:29.660Z,21.93
2019-01-21T12:27:42.804Z,22.00
2019-01-21T12:30:38.165Z,21.57
2019-01-21T12:33:42.923Z,20.90
2019-01-21T12:36:57.068Z,21.40
2019-01-21T12:39:53.515Z,22.17
2019-01-21T12:42:32.610Z,22.90
2019-01-21T12:45:47.263Z,22.20
2019-01-21T12:48:43.041Z,19.93
2019-01-21T12:52:07.044Z,19.80
2019-01-21T12:55:05.937Z,21.27
2019-01-21T12:58:23.784Z,21.37
2019-01-21T13:01:09.588Z,19.07
2019-01-21T13:04:20.525Z,21.97
2019-01-21T13:07:41.168Z,21.27
2019-01-21T13:10:42.965Z,21.83
2019-01-21T13:14:05.403Z,21.23
2019-01-21T13:17:14.947Z,21.03
2019-01-21T13:20:10.676Z,22.17
2019-01-21T13:23:02.273Z,22.40
2019-01-21T13:26:22.506Z,21.87
2019-01-21T13:29:05.771Z,22.17
2019-01-21T13:32:19.869Z,23.13
2019-01-21T13:35:17.412Z,21.23
2019-01-21T13:38:32.073Z,23.03
2019-01-21T13:41:55.495Z,22.67
2019-01-21T13:44:54.620Z,22.43
2019-01-21T13:47:54.398Z,21.90
2019-01-21T13:51:30.178Z,22.20
2019-01-21T13:54:41.691Z,21.13
2019-01-21T13:57:58.948Z,20.40
2019-01-21T14:01:28.377Z,21.57
2019-01-21T14:04:38.686Z,20.10
2019-01-21T14:07:48.871Z,20.53
2019-01-21T14:10:40.473Z,20.93
2019-01-21T14:13:44.144Z,20.43
2019-01-21T14:16:44.392Z,20.70
2019-01-21T14:19:49.244Z,21.33
2019-01-21T14:23:06.949Z,21.17
2019-01-21T14:26:08.294Z,20.37
2019-01-21T14:29:03.103Z,21.47
2019-01-21T14:32:35.722Z,22.23
2019-01-21T14:35:41.710Z,21.03
2019-01-21T14:38:47.386Z,22.03
2019-01-21T14:42:07.828Z,21.87
2019-01-21T14:45:19.144Z,21.17
2019-01-21T14:48:09.022Z,21.40
2019-01-21T14:50:52.653Z,21.57
2019-01-21T14:53:54.217Z,21.63
2019-01-21T14:56:32.149Z,21.40
2019-01-21T14:59:49.717Z,22.43
2019-01-21T15:02:49.218Z,21.83
2019-01-21T15:05:55.075Z,20.60
2019-01-21T15:08:40.792Z,21.70
2019-01-21T15:11:31.254Z,21.57
2019-01-21T15:14:35.564Z,21.37
2019-01-21T15:17:57.696Z,22.27
2019-01-21T15:20:59.609Z,22.17
2019-01-21T15:24:01.472Z,24.00
2019-01-21T15:27:06.253Z,22.10
2019-01-21T15:29:49.408Z,24.40
2019-01-21T15:35:42.700Z,24.17
2019-01-21T15:38:25.948Z,23.47
2019-01-21T15:41:46.585Z,23.87
2019-01-21T15:44:39.136Z,23.63
2019-01-21T15:47:45.456Z,23.47
2019-01-21T15:50:34.051Z,23.47
2019-01-21T15:53:35.998Z,23.30
2019-01-21T15:56:28.618Z,22.50
2019-01-21T15:59:15.322Z,23.73
2019-01-21T16:02:01.581Z,22.60
2019-01-21T16:05:01.335Z,24.40
2019-01-21T16:07:41.197Z,25.37
2019-01-21T16:10:34.788Z,27.20
2019-01-21T16:13:22.388Z,26.33
2019-01-21T16:16:43.167Z,24.70
2019-01-21T16:19:40.916Z,24.00
2019-01-21T16:22:35.427Z,23.93
2019-01-21T16:25:34.932Z,24.53
2019-01-21T16:29:00.308Z,23.43
2019-01-21T16:31:36.869Z,24.13
2019-01-21T16:34:50.100Z,24.20
2019-01-21T16:38:04.548Z,24.43
2019-01-21T16:40:56.786Z,23.03
2019-01-21T16:43:26.988Z,23.57
2019-01-21T16:45:57.508Z,24.07
2019-01-21T16:48:27.932Z,25.87
2019-01-21T16:50:58.216Z,25.23
2019-01-21T16:53:28.417Z,25.50
2019-01-21T16:55:58.660Z,25.00
2019-01-21T16:58:29.254Z,26.20
2019-01-21T17:00:59.904Z,26.43
2019-01-21T17:03:30.588Z,24.37
2019-01-21T17:06:00.778Z,25.67
2019-01-21T17:08:31.021Z,25.60
2019-01-21T17:11:02.086Z,26.07
2019-01-21T17:13:32.736Z,28.13
2019-01-21T17:16:03.044Z,26.03
2019-01-21T17:18:33.549Z,26.17
2019-01-21T17:21:04.156Z,25.93
2019-01-21T17:23:34.498Z,27.53
2019-01-21T17:26:04.869Z,25.43
2019-01-21T17:28:35.091Z,26.53
2019-01-21T17:31:05.401Z,25.37
2019-01-21T17:33:35.609Z,25.57
2019-01-21T17:36:06.138Z,26.50
2019-01-21T17:38:36.377Z,24.17
2019-01-21T17:41:07.015Z,24.57
2019-01-21T17:43:37.640Z,24.03
2019-01-21T17:46:08.227Z,23.80
2019-01-21T17:48:38.811Z,24.30
2019-01-21T17:51:09.356Z,22.33
2019-01-21T17:53:39.674Z,22.97
2019-01-21T17:56:09.971Z,23.67
2019-01-21T17:58:40.947Z,22.83
2019-01-21T18:01:11.163Z,21.87
2019-01-21T18:03:41.469Z,22.97
2019-01-21T18:06:11.709Z,22.30
2019-01-21T18:08:42.603Z,22.87
2019-01-21T18:11:12.845Z,23.80
2019-01-21T18:13:43.129Z,23.00
2019-01-21T18:16:13.678Z,24.07
2019-01-21T18:18:43.901Z,24.37
2019-01-21T18:21:14.175Z,23.40
2019-01-21T18:23:44.454Z,24.60
2019-01-21T18:26:14.660Z,23.83
2019-01-21T18:28:44.945Z,24.80
2019-01-21T18:31:15.482Z,25.00
2019-01-21T18:33:45.723Z,26.77
2019-01-21T18:36:16.016Z,25.90
2019-01-21T18:38:46.295Z,26.50
2019-01-21T18:41:16.597Z,26.57
2019-01-21T18:43:47.182Z,24.97
2019-01-21T18:46:17.377Z,25.97
2019-01-21T18:48:47.704Z,25.70
2019-01-21T18:51:17.948Z,24.65
2019-01-21T18:53:48.215Z,26.20
2019-01-21T18:56:18.563Z,25.17
2019-01-21T18:58:48.959Z,25.67
2019-01-21T19:01:19.229Z,24.37
2019-01-21T19:03:49.508Z,26.27
2019-01-21T19:06:19.764Z,25.30
2019-01-21T19:08:50.382Z,26.57
2019-01-21T19:11:20.628Z,26.57
2019-01-21T19:13:51.247Z,26.80
2019-01-21T19:16:21.823Z,26.00
2019-01-21T19:18:52.435Z,25.60
2019-01-21T19:21:22.881Z,26.60
2019-01-21T19:23:53.897Z,26.47
2019-01-21T19:26:24.140Z,26.93
2019-01-21T19:28:55.173Z,28.07
2019-01-21T19:31:25.418Z,27.23
2019-01-21T19:33:55.699Z,26.30
2019-01-21T19:36:25.960Z,26.47
2019-01-21T19:38:56.203Z,26.90
2019-01-21T19:41:26.801Z,27.90
2019-01-21T19:43:57.435Z,27.67
2019-01-21T19:46:27.707Z,28.57
2019-01-21T19:48:57.882Z,27.90
2019-01-21T19:51:28.447Z,29.13
2019-01-21T19:53:58.610Z,29.57
2019-01-21T19:56:29.124Z,28.60
2019-01-21T19:58:59.404Z,28.83
2019-01-21T20:01:29.924Z,29.50
2019-01-21T20:04:00.703Z,29.97
2019-01-21T20:06:30.970Z,28.93
2019-01-21T20:09:01.461Z,28.93
2019-01-21T20:11:34.966Z,29.77
2019-01-21T20:14:03.528Z,30.00
2019-01-21T20:16:34.059Z,28.87
2019-01-21T20:19:04.920Z,29.07
2019-01-21T20:21:35.207Z,28.37
2019-01-21T20:24:05.370Z,29.23
2019-01-21T20:26:35.986Z,28.53
2019-01-21T20:29:06.228Z,28.77
2019-01-21T20:31:36.456Z,28.27
2019-01-21T20:34:06.702Z,27.17
2019-01-21T20:36:36.986Z,27.33
2019-01-21T20:39:09.829Z,27.73
2019-01-21T20:41:40.380Z,26.43
2019-01-21T20:44:10.530Z,26.90
2019-01-21T20:46:41.100Z,26.23
2019-01-21T20:49:11.329Z,27.13
2019-01-21T20:51:41.552Z,25.87
2019-01-21T20:54:11.751Z,25.17
2019-01-21T20:56:42.312Z,25.57
2019-01-21T20:59:12.573Z,26.13
2019-01-21T21:01:43.433Z,26.30
2019-01-21T21:04:13.800Z,25.53
2019-01-21T21:06:44.268Z,25.03
2019-01-21T21:09:15.034Z,25.57
2019-01-21T21:11:45.545Z,25.67
2019-01-21T21:14:15.966Z,24.97
2019-01-21T21:16:47.034Z,25.60
2019-01-21T21:19:17.456Z,25.90
2019-01-21T21:21:48.120Z,27.00
2019-01-21T21:24:18.988Z,26.07
2019-01-21T21:26:49.320Z,26.70
2019-01-21T21:29:19.759Z,27.73
2019-01-21T21:31:50.121Z,26.13
2019-01-21T21:34:20.471Z,26.70
2019-01-21T21:36:50.876Z,25.53
2019-01-21T21:39:21.214Z,27.10
2019-01-21T21:41:51.663Z,26.97
2019-01-21T21:44:21.988Z,27.73
2019-01-21T21:46:53.127Z,26.67
2019-01-21T21:49:24.678Z,26.47
2019-01-21T21:51:55.361Z,25.97
2019-01-21T21:54:25.647Z,26.53
2019-01-21T21:56:56.263Z,26.80
2019-01-21T21:59:27.761Z,26.60
2019-01-21T22:01:58.064Z,27.10
2019-01-21T22:04:28.391Z,27.73
2019-01-21T22:06:58.723Z,27.63
2019-01-21T22:09:30.246Z,28.10
2019-01-21T22:12:00.921Z,27.77
2019-01-21T22:14:31.270Z,27.57
2019-01-21T22:17:01.911Z,28.20
2019-01-21T22:19:32.218Z,27.57
2019-01-21T22:22:02.548Z,27.40
2019-01-21T22:24:32.868Z,27.53
2019-01-21T22:27:03.542Z,28.43
2019-01-21T22:29:33.702Z,28.20
2019-01-21T22:32:04.036Z,26.87
2019-01-21T22:34:34.306Z,27.77
2019-01-21T22:37:04.583Z,26.80
2019-01-21T22:39:34.844Z,27.33
2019-01-21T22:42:05.165Z,27.20
2019-01-21T22:44:35.910Z,26.73
2019-01-21T22:47:06.184Z,27.30
2019-01-21T22:49:36.407Z,27.33
2019-01-21T22:52:07.262Z,26.13
2019-01-21T22:54:37.809Z,26.60
2019-01-21T22:57:08.034Z,26.33
2019-01-21T22:59:38.607Z,26.77
2019-01-21T23:02:09.224Z,27.43
2019-01-21T23:04:39.500Z,27.23
2019-01-21T23:07:10.489Z,26.53
2019-01-21T23:09:40.728Z,26.43
2019-01-21T23:12:10.948Z,26.27
2019-01-21T23:14:41.202Z,27.63
2019-01-21T23:17:12.202Z,27.67
2019-01-21T23:19:42.815Z,26.97
2019-01-21T23:22:13.082Z,26.47
2019-01-21T23:24:43.260Z,26.70
2019-01-21T23:27:13.577Z,27.20
2019-01-21T23:29:43.773Z,26.33
2019-01-21T23:32:14.307Z,26.60
2019-01-21T23:34:44.548Z,27.77
2019-01-21T23:37:14.794Z,28.93
2019-01-21T23:39:45.008Z,27.77
2019-01-21T23:42:15.248Z,26.60
2019-01-21T23:44:46.246Z,27.40
2019-01-21T23:47:16.496Z,26.63
2019-01-21T23:49:46.769Z,27.63
2019-01-21T23:52:17.070Z,28.10
2019-01-21T23:54:47.307Z,28.60
2019-01-21T23:57:17.673Z,26.87
2019-01-21T23:59:47.871Z,28.03
